Time;durP1;ratioP1;P1;durP2;ratioP2;P2;SDS_P1;SDS_P2;PMS_P1;PMS_P2;Temp;Humidity;BMP_temperature;BMP_pressure;BME280_temperature;BME280_humidity;BME280_pressure;Samples;Min_cycle;Max_cycle;Signal;HPM_P1;HPM_P2
2023/06/05 00:00:28;;;;;;;;;;;19.00;97.50;;;;;;5094712;28;19977;-39
2023/06/05 00:02:53;;;;;;;;;;;19.00;97.60;;;;;;5094924;28;20339;-41
2023/06/05 00:05:19;;;;;;;;;;;19.00;97.30;;;;;;5094510;28;19934;-43
2023/06/05 00:07:45;;;;;;;;;;;19.00;97.50;;;;;;5093908;28;19991;-40
2023/06/05 00:10:11;;;;;;;;;;;18.90;97.40;;;;;;5094351;28;19944;-39
2023/06/05 00:12:37;;;;;;;;;;;18.90;97.40;;;;;;5094535;28;19912;-39
2023/06/05 00:15:03;;;;;;;;;;;18.90;97.50;;;;;;5094801;28;19915;-40
2023/06/05 00:17:30;;;;;;;;;;;18.90;97.30;;;;;;5094379;28;19908;-39
2023/06/05 00:19:58;;;;;;;;;;;18.90;97.20;;;;;;5094055;28;19912;-40
2023/06/05 00:22:24;;;;;;;;;;;18.90;97.30;;;;;;5094201;28;20377;-40
2023/06/05 00:24:50;;;;;;;;;;;18.90;97.20;;;;;;5094049;28;19908;-41
2023/06/05 00:27:15;;;;;;;;;;;18.80;97.30;;;;;;5093800;28;19916;-41
2023/06/05 00:29:41;;;;;;;;;;;18.80;97.30;;;;;;5094131;28;20401;-41
2023/06/05 00:32:06;;;;;;;;;;;18.80;97.20;;;;;;5094039;28;20037;-40
2023/06/05 00:34:32;;;;;;;;;;;18.80;97.30;;;;;;5094012;28;19912;-40
2023/06/05 00:36:57;;;;;;;;;;;18.80;97.10;;;;;;5093476;28;19909;-40
2023/06/05 00:39:23;;;;;;;;;;;18.80;97.10;;;;;;5093791;28;19977;-42
2023/06/05 00:41:49;;;;;;;;;;;18.80;97.10;;;;;;5093905;28;19908;-40
2023/06/05 00:44:14;;;;;;;;;;;18.80;97.10;;;;;;5093715;28;19908;-39
2023/06/05 00:46:40;;;;;;;;;;;18.80;97.20;;;;;;5093237;28;19951;-40
2023/06/05 00:49:07;;;;;;;;;;;18.80;97.20;;;;;;5093692;28;19912;-42
2023/06/05 00:51:33;;;;;;;;;;;18.80;97.10;;;;;;5093612;28;19919;-40
2023/06/05 00:53:59;;;;;;;;;;;18.80;97.00;;;;;;5093504;28;19912;-40
2023/06/05 00:56:24;;;;;;;;;;;18.70;97.00;;;;;;5093795;28;19916;-39
2023/06/05 00:58:52;;;;;;;;;;;18.70;97.00;;;;;;5093558;28;19954;-39
2023/06/05 01:01:20;;;;;;;;;;;18.70;97.20;;;;;;5093596;28;19963;-39
2023/06/05 01:03:47;;;;;;;;;;;18.70;97.00;;;;;;5093386;28;20396;-40
2023/06/05 01:06:13;;;;;;;;;;;18.80;97.00;;;;;;5093682;28;20351;-40
2023/06/05 01:08:39;;;;;;;;;;;18.70;97.00;;;;;;5093219;28;19916;-42
2023/06/05 01:11:21;;;;;;;;;;;18.70;97.00;;;;;;5093264;28;19999;-39
2023/06/05 01:13:51;;;;;;;;;;;18.70;96.90;;;;;;5093110;28;19912;-41
2023/06/05 01:16:18;;;;;;;;;;;18.70;96.90;;;;;;5092760;28;19908;-40
2023/06/05 01:18:46;;;;;;;;;;;18.60;97.00;;;;;;5093107;28;19912;-40
2023/06/05 01:21:15;;;;;;;;;;;18.70;97.20;;;;;;5091816;28;19916;-40
2023/06/05 01:23:44;;;;;;;;;;;18.70;97.00;;;;;;5093174;28;19932;-40
2023/06/05 01:26:12;;;;;;;;;;;18.70;96.80;;;;;;5092577;28;19908;-40
2023/06/05 01:28:38;;;;;;;;;;;18.70;96.90;;;;;;5092882;28;19916;-41
2023/06/05 01:31:13;;;;;;;;;;;18.70;96.90;;;;;;5092343;28;19912;-43
2023/06/05 01:34:01;;;;;;;;;;;18.70;96.90;;;;;;5092765;28;20302;-39
2023/06/05 01:36:28;;;;;;;;;;;18.60;96.90;;;;;;5092427;28;19912;-40
2023/06/05 01:38:54;;;;;;;;;;;18.60;96.70;;;;;;5092780;28;19912;-40
2023/06/05 01:41:20;;;;;;;;;;;18.60;96.80;;;;;;5092790;28;19908;-40
2023/06/05 01:43:47;;;;;;;;;;;18.60;96.70;;;;;;5092482;28;19909;-40
2023/06/05 01:46:15;;;;;;;;;;;18.60;96.70;;;;;;5092770;28;20277;-37
2023/06/05 01:48:40;;;;;;;;;;;18.60;96.70;;;;;;5092575;28;19985;-40
2023/06/05 01:51:06;;;;;;;;;;;18.60;96.60;;;;;;5092531;28;20342;-42
2023/06/05 01:53:32;;;;;;;;;;;18.60;96.70;;;;;;5092355;28;19912;-41
2023/06/05 01:55:59;;;;;;;;;;;18.60;96.70;;;;;;5092135;28;19963;-40
2023/06/05 01:58:26;;;;;;;;;;;18.60;96.70;;;;;;5092295;28;19951;-40
2023/06/05 02:00:58;;;;;;;;;;;18.50;96.60;;;;;;5092506;28;19915;-41
2023/06/05 02:03:24;;;;;;;;;;;18.60;96.70;;;;;;5092316;28;20280;-39
2023/06/05 02:05:51;;;;;;;;;;;18.50;96.50;;;;;;5092182;28;19908;-40
2023/06/05 02:08:19;;;;;;;;;;;18.60;96.70;;;;;;5091973;28;19959;-40
2023/06/05 02:10:47;;;;;;;;;;;18.50;96.60;;;;;;5092366;28;19999;-38
2023/06/05 02:13:15;;;;;;;;;;;18.50;96.60;;;;;;5091997;28;19969;-39
2023/06/05 02:15:41;;;;;;;;;;;18.50;96.60;;;;;;5092009;28;19908;-40
2023/06/05 02:18:07;;;;;;;;;;;18.60;96.50;;;;;;5091803;28;19958;-40
2023/06/05 02:20:34;;;;;;;;;;;18.60;96.60;;;;;;5092075;28;19915;-41
2023/06/05 02:23:00;;;;;;;;;;;18.50;96.50;;;;;;5092045;28;19908;-40
2023/06/05 02:25:26;;;;;;;;;;;18.50;96.50;;;;;;5091786;28;19938;-40
2023/06/05 02:27:52;;;;;;;;;;;18.50;96.60;;;;;;5091474;28;20008;-40
2023/06/05 02:30:18;;;;;;;;;;;18.60;96.50;;;;;;5091861;28;20495;-40
2023/06/05 02:32:43;;;;;;;;;;;18.50;96.50;;;;;;5091837;28;20003;-41
2023/06/05 02:35:13;;;;;;;;;;;18.50;96.50;;;;;;5091693;28;19908;-41
2023/06/05 02:37:43;;;;;;;;;;;18.50;96.40;;;;;;5091224;28;19908;-39
2023/06/05 02:40:12;;;;;;;;;;;18.50;96.40;;;;;;5091625;28;19985;-41
2023/06/05 02:42:37;;;;;;;;;;;18.50;96.40;;;;;;5090753;28;20008;-40
2023/06/05 02:45:03;;;;;;;;;;;18.50;96.40;;;;;;5091726;28;19943;-40
2023/06/05 02:47:29;;;;;;;;;;;18.50;96.40;;;;;;5091114;28;19915;-41
2023/06/05 02:49:56;;;;;;;;;;;18.50;96.30;;;;;;5091598;28;19916;-40
2023/06/05 02:52:21;;;;;;;;;;;18.50;96.40;;;;;;5091589;28;19941;-39
2023/06/05 02:54:47;;;;;;;;;;;18.50;96.40;;;;;;5091348;28;20305;-42
2023/06/05 02:57:14;;;;;;;;;;;18.50;96.40;;;;;;5091068;28;19914;-41
2023/06/05 02:59:39;;;;;;;;;;;18.50;96.30;;;;;;5092322;28;19908;-40
2023/06/05 03:02:05;;;;;;;;;;;18.50;96.30;;;;;;5091796;28;19958;-40
2023/06/05 03:04:32;;;;;;;;;;;18.50;96.20;;;;;;5091386;28;19961;-39
2023/06/05 03:07:02;;;;;;;;;;;18.40;96.20;;;;;;5091001;28;19912;-40
2023/06/05 03:09:28;;;;;;;;;;;18.40;96.20;;;;;;5091686;28;19927;-39
2023/06/05 03:11:54;;;;;;;;;;;18.40;96.30;;;;;;5091703;28;20265;-41
2023/06/05 03:14:19;;;;;;;;;;;18.40;96.20;;;;;;5091391;28;19912;-39
2023/06/05 03:16:45;;;;;;;;;;;18.40;96.10;;;;;;5090942;28;19912;-40
2023/06/05 03:19:11;;;;;;;;;;;18.40;96.20;;;;;;5091365;28;19908;-40
2023/06/05 03:21:37;;;;;;;;;;;18.40;96.20;;;;;;5091804;28;19915;-40
2023/06/05 03:24:04;;;;;;;;;;;18.40;96.20;;;;;;5091222;28;19908;-39
2023/06/05 03:26:30;;;;;;;;;;;18.40;96.20;;;;;;5090829;28;20288;-40
2023/06/05 03:28:55;;;;;;;;;;;18.40;96.20;;;;;;5091279;28;20503;-41
2023/06/05 03:31:21;;;;;;;;;;;18.40;96.20;;;;;;5091271;28;19999;-38
2023/06/05 03:33:46;;;;;;;;;;;18.40;96.10;;;;;;5091034;28;19919;-43
2023/06/05 03:36:15;;;;;;;;;;;18.40;96.10;;;;;;5090602;28;19960;-40
2023/06/05 03:38:40;;;;;;;;;;;18.40;96.10;;;;;;5089889;28;19966;-41
2023/06/05 03:41:06;;;;;;;;;;;18.40;96.10;;;;;;5091182;28;20389;-39
2023/06/05 03:43:31;;;;;;;;;;;18.30;96.10;;;;;;5091031;28;19953;-39
2023/06/05 03:45:58;;;;;;;;;;;18.30;96.00;;;;;;5089717;28;19915;-39
2023/06/05 03:48:23;;;;;;;;;;;18.30;96.00;;;;;;5090924;28;20006;-38
2023/06/05 03:50:52;;;;;;;;;;;18.30;96.00;;;;;;5090916;28;20003;-40
2023/06/05 03:53:18;;;;;;;;;;;18.30;96.10;;;;;;5089841;28;19912;-42
2023/06/05 03:55:45;;;;;;;;;;;18.30;96.00;;;;;;5094537;28;19915;-40
2023/06/05 03:58:13;;;;;;;;;;;18.30;96.00;;;;;;5094501;28;19916;-41
2023/06/05 04:00:40;;;;;;;;;;;18.30;96.10;;;;;;5094679;28;19923;-40
2023/06/05 04:03:05;;;;;;;;;;;18.30;96.00;;;;;;5093499;28;20353;-40
2023/06/05 04:05:31;;;;;;;;;;;18.30;96.40;;;;;;5094329;28;20318;-39
2023/06/05 04:07:56;;;;;;;;;;;18.30;96.10;;;;;;5094218;28;19915;-39
2023/06/05 04:10:22;;;;;;;;;;;18.30;96.00;;;;;;5094721;28;19964;-40
2023/06/05 04:12:47;;;;;;;;;;;18.30;96.00;;;;;;5094347;28;19916;-40
2023/06/05 04:15:13;;;;;;;;;;;18.30;96.00;;;;;;5094734;28;20370;-41
2023/06/05 04:17:39;;;;;;;;;;;18.30;96.00;;;;;;5093892;28;19909;-39
2023/06/05 04:20:05;;;;;;;;;;;18.30;96.00;;;;;;5094173;28;19908;-39
2023/06/05 04:22:31;;;;;;;;;;;18.30;96.00;;;;;;5094270;28;19919;-41
2023/06/05 04:24:56;;;;;;;;;;;18.30;96.00;;;;;;5094175;28;19908;-41
2023/06/05 04:27:28;;;;;;;;;;;18.30;96.10;;;;;;5093648;28;19917;-40
2023/06/05 04:29:53;;;;;;;;;;;18.30;96.40;;;;;;5094850;28;19955;-41
2023/06/05 04:32:19;;;;;;;;;;;18.30;96.00;;;;;;5094038;28;19966;-41
2023/06/05 04:34:45;;;;;;;;;;;18.20;96.10;;;;;;5093895;28;19931;-40
2023/06/05 04:37:10;;;;;;;;;;;18.30;96.00;;;;;;5093499;28;19912;-40
2023/06/05 04:39:36;;;;;;;;;;;18.20;96.10;;;;;;5093981;28;19916;-41
2023/06/05 04:42:01;;;;;;;;;;;18.30;96.20;;;;;;5093889;28;19915;-40
2023/06/05 04:44:27;;;;;;;;;;;18.20;96.10;;;;;;5093797;28;20277;-39
2023/06/05 04:46:53;;;;;;;;;;;18.30;96.20;;;;;;5093248;28;19909;-40
2023/06/05 04:49:19;;;;;;;;;;;18.20;96.20;;;;;;5093662;28;20022;-41
2023/06/05 04:51:44;;;;;;;;;;;18.20;96.20;;;;;;5093706;28;20498;-41
2023/06/05 04:54:10;;;;;;;;;;;18.20;96.20;;;;;;5093607;28;19934;-39
2023/06/05 04:56:37;;;;;;;;;;;18.20;96.30;;;;;;5093307;28;19912;-40
2023/06/05 04:59:03;;;;;;;;;;;18.20;96.30;;;;;;5093633;28;19915;-39
2023/06/05 05:01:29;;;;;;;;;;;18.20;96.40;;;;;;5093527;28;19908;-39
2023/06/05 05:03:54;;;;;;;;;;;18.20;96.40;;;;;;5093261;28;20018;-41
2023/06/05 05:06:20;;;;;;;;;;;18.20;96.40;;;;;;5091987;28;19912;-39
2023/06/05 05:08:49;;;;;;;;;;;18.20;96.50;;;;;;5093235;28;19966;-39
2023/06/05 05:11:15;;;;;;;;;;;18.20;96.50;;;;;;5093288;28;19934;-39
2023/06/05 05:13:41;;;;;;;;;;;18.20;96.50;;;;;;5093207;28;19920;-40
2023/06/05 05:16:07;;;;;;;;;;;18.20;96.60;;;;;;5092818;28;19919;-40
2023/06/05 05:18:33;;;;;;;;;;;18.20;96.60;;;;;;5092978;28;19915;-39
2023/06/05 05:20:59;;;;;;;;;;;18.20;96.80;;;;;;5093210;28;19912;-40
2023/06/05 05:23:25;;;;;;;;;;;18.20;96.80;;;;;;5093096;28;20392;-40
2023/06/05 05:25:51;;;;;;;;;;;18.20;96.90;;;;;;5093043;28;19909;-40
2023/06/05 05:28:16;;;;;;;;;;;18.20;97.00;;;;;;5092888;28;19919;-39
2023/06/05 05:30:42;;;;;;;;;;;18.20;97.00;;;;;;5091745;28;20277;-39
2023/06/05 05:33:07;;;;;;;;;;;18.20;97.10;;;;;;5092800;28;19916;-39
2023/06/05 05:35:33;;;;;;;;;;;18.20;97.20;;;;;;5092803;28;19910;-41
2023/06/05 05:37:58;;;;;;;;;;;18.20;97.20;;;;;;5092439;28;19916;-39
2023/06/05 05:40:24;;;;;;;;;;;18.30;97.30;;;;;;5092829;28;19908;-40
2023/06/05 05:42:49;;;;;;;;;;;18.30;97.40;;;;;;5092794;28;20284;-41
2023/06/05 05:45:15;;;;;;;;;;;18.30;97.40;;;;;;5092648;28;19912;-41
2023/06/05 05:47:40;;;;;;;;;;;18.30;97.40;;;;;;5092061;28;19908;-41
2023/06/05 05:50:06;;;;;;;;;;;18.30;97.50;;;;;;5092795;28;20004;-39
2023/06/05 05:52:32;;;;;;;;;;;18.30;97.50;;;;;;5092520;28;20266;-41
2023/06/05 05:54:58;;;;;;;;;;;18.40;97.50;;;;;;5092438;28;19913;-40
2023/06/05 05:57:24;;;;;;;;;;;18.30;97.50;;;;;;5092006;28;19916;-41
2023/06/05 05:59:50;;;;;;;;;;;18.30;97.50;;;;;;5092519;28;19908;-41
2023/06/05 06:02:16;;;;;;;;;;;18.40;97.70;;;;;;5092299;28;20388;-40
2023/06/05 06:04:43;;;;;;;;;;;18.40;97.50;;;;;;5092302;28;19933;-39
2023/06/05 06:07:09;;;;;;;;;;;18.40;97.60;;;;;;5092158;28;19912;-41
2023/06/05 06:09:35;;;;;;;;;;;18.40;97.60;;;;;;5092306;28;20292;-41
2023/06/05 06:12:05;;;;;;;;;;;18.40;97.50;;;;;;5092254;28;19913;-41
2023/06/05 06:14:31;;;;;;;;;;;18.40;97.50;;;;;;5092140;28;19952;-40
2023/06/05 06:16:57;;;;;;;;;;;18.40;97.50;;;;;;5091427;28;19908;-41
2023/06/05 06:19:23;;;;;;;;;;;18.40;97.70;;;;;;5092127;28;19908;-40
2023/06/05 06:21:51;;;;;;;;;;;18.50;97.80;;;;;;5092404;28;19919;-40
2023/06/05 06:24:19;;;;;;;;;;;18.40;97.80;;;;;;5091923;28;19908;-40
2023/06/05 06:26:46;;;;;;;;;;;18.40;97.90;;;;;;5091516;28;19919;-40
2023/06/05 06:29:13;;;;;;;;;;;18.40;97.90;;;;;;5092371;28;19908;-41
2023/06/05 06:31:38;;;;;;;;;;;18.40;97.90;;;;;;5091807;28;20293;-40
2023/06/05 06:34:04;;;;;;;;;;;18.40;97.90;;;;;;5091809;28;19912;-40
2023/06/05 06:36:30;;;;;;;;;;;18.40;97.90;;;;;;5091351;28;19919;-41
2023/06/05 06:38:55;;;;;;;;;;;18.50;97.90;;;;;;5091930;28;19912;-41
2023/06/05 06:41:21;;;;;;;;;;;18.50;97.80;;;;;;5091797;28;19908;-40
2023/06/05 06:43:46;;;;;;;;;;;18.50;97.80;;;;;;5091518;28;19908;-41
2023/06/05 06:46:12;;;;;;;;;;;18.50;97.80;;;;;;5091512;28;19913;-39
2023/06/05 06:48:38;;;;;;;;;;;18.60;97.90;;;;;;5092017;28;19935;-40
2023/06/05 06:51:04;;;;;;;;;;;18.60;98.00;;;;;;5091676;28;19917;-40
2023/06/05 06:53:29;;;;;;;;;;;18.60;98.00;;;;;;5091506;28;19916;-40
2023/06/05 06:55:55;;;;;;;;;;;18.60;97.80;;;;;;5091473;28;19939;-40
2023/06/05 06:58:20;;;;;;;;;;;18.60;97.90;;;;;;5091353;28;19960;-40
2023/06/05 07:00:47;;;;;;;;;;;18.60;97.90;;;;;;5091544;28;19915;-41
2023/06/05 07:03:12;;;;;;;;;;;18.70;97.80;;;;;;5091631;28;19915;-41
2023/06/05 07:05:38;;;;;;;;;;;18.70;97.70;;;;;;5091522;28;19908;-41
2023/06/05 07:08:03;;;;;;;;;;;18.70;97.70;;;;;;5090975;28;19932;-39
2023/06/05 07:10:29;;;;;;;;;;;18.70;97.70;;;;;;5091458;28;20053;-41
2023/06/05 07:12:54;;;;;;;;;;;18.70;97.70;;;;;;5091327;28;19912;-40
2023/06/05 07:15:20;;;;;;;;;;;18.80;97.70;;;;;;5091208;28;20384;-41
2023/06/05 07:17:46;;;;;;;;;;;18.80;97.60;;;;;;5090939;28;19920;-41
2023/06/05 07:20:12;;;;;;;;;;;18.80;97.60;;;;;;5091424;28;20288;-39
2023/06/05 07:22:42;;;;;;;;;;;18.80;97.60;;;;;;5091364;28;19912;-41
2023/06/05 07:25:09;;;;;;;;;;;18.80;97.60;;;;;;5091226;28;19909;-41
2023/06/05 07:27:35;;;;;;;;;;;18.80;97.60;;;;;;5090980;28;19950;-39
2023/06/05 07:30:01;;;;;;;;;;;18.90;97.70;;;;;;5094391;28;19915;-40
2023/06/05 07:32:26;;;;;;;;;;;18.90;97.70;;;;;;5095163;28;19920;-41
2023/06/05 07:34:52;;;;;;;;;;;18.90;97.70;;;;;;5095175;28;19931;-40
2023/06/05 07:37:17;;;;;;;;;;;18.90;97.70;;;;;;5094650;28;20415;-39
2023/06/05 07:39:43;;;;;;;;;;;18.90;97.70;;;;;;5095106;28;19954;-41
2023/06/05 07:42:08;;;;;;;;;;;18.90;97.70;;;;;;5094948;28;19918;-41
2023/06/05 07:44:34;;;;;;;;;;;18.90;98.10;;;;;;5094437;28;19912;-39
2023/06/05 07:47:00;;;;;;;;;;;18.90;97.90;;;;;;5094509;28;20281;-41
2023/06/05 07:49:25;;;;;;;;;;;18.90;97.90;;;;;;5094965;28;19958;-40
2023/06/05 07:51:51;;;;;;;;;;;18.90;97.80;;;;;;5094833;28;19915;-40
2023/06/05 07:54:16;;;;;;;;;;;18.90;97.90;;;;;;5094846;28;19908;-40
2023/06/05 07:56:42;;;;;;;;;;;18.90;97.90;;;;;;5094243;28;19997;-41
2023/06/05 07:59:08;;;;;;;;;;;18.90;97.90;;;;;;5094749;28;20370;-40
2023/06/05 08:01:36;;;;;;;;;;;18.90;97.90;;;;;;5093495;28;20046;-40
2023/06/05 08:04:03;;;;;;;;;;;18.90;98.00;;;;;;5094626;28;19990;-40
2023/06/05 08:06:29;;;;;;;;;;;18.90;98.00;;;;;;5094072;28;20293;-41
2023/06/05 08:08:55;;;;;;;;;;;18.90;98.00;;;;;;5094506;28;19916;-40
2023/06/05 08:11:20;;;;;;;;;;;18.90;98.00;;;;;;5094398;28;19973;-40
2023/06/05 08:13:46;;;;;;;;;;;18.90;98.00;;;;;;5094317;28;19919;-41
2023/06/05 08:16:12;;;;;;;;;;;19.00;98.00;;;;;;5094364;28;19939;-41
2023/06/05 08:18:37;;;;;;;;;;;19.00;97.90;;;;;;5094345;28;19915;-43
2023/06/05 08:21:03;;;;;;;;;;;19.00;98.00;;;;;;5094763;28;19998;-41
2023/06/05 08:23:28;;;;;;;;;;;19.00;98.00;;;;;;5094219;28;19939;-41
2023/06/05 08:25:54;;;;;;;;;;;19.00;98.10;;;;;;5094312;28;19908;-40
2023/06/05 08:28:20;;;;;;;;;;;19.00;98.10;;;;;;5093960;28;20284;-41
2023/06/05 08:30:46;;;;;;;;;;;19.00;98.10;;;;;;5094090;28;20012;-40
2023/06/05 08:33:11;;;;;;;;;;;19.00;98.10;;;;;;5093907;28;19923;-40
2023/06/05 08:35:39;;;;;;;;;;;19.00;98.10;;;;;;5094014;28;19998;-40
2023/06/05 08:38:05;;;;;;;;;;;19.10;98.20;;;;;;5094070;28;20369;-40
2023/06/05 08:40:31;;;;;;;;;;;19.10;98.20;;;;;;5093783;28;20201;-41
2023/06/05 08:42:57;;;;;;;;;;;19.10;98.20;;;;;;5094133;28;20359;-41
2023/06/05 08:45:22;;;;;;;;;;;19.10;98.30;;;;;;5093766;28;19912;-41
2023/06/05 08:47:49;;;;;;;;;;;19.10;98.30;;;;;;5093484;28;20003;-40
2023/06/05 08:50:15;;;;;;;;;;;19.10;98.30;;;;;;5094069;28;20381;-41
2023/06/05 08:52:41;;;;;;;;;;;19.10;98.30;;;;;;5093776;28;19913;-41
2023/06/05 08:55:07;;;;;;;;;;;19.10;98.40;;;;;;5093576;28;19908;-42
2023/06/05 08:57:36;;;;;;;;;;;19.10;98.30;;;;;;5093554;28;19912;-40
2023/06/05 09:00:07;;;;;;;;;;;19.20;99.50;;;;;;5093585;28;20007;-41
2023/06/05 09:02:33;;;;;;;;;;;19.50;99.90;;;;;;5093612;28;19908;-41
2023/06/05 09:05:00;;;;;;;;;;;19.50;99.90;;;;;;5093425;28;20392;-41
2023/06/05 09:07:28;;;;;;;;;;;19.40;99.90;;;;;;5092827;28;20233;-40
2023/06/05 09:09:54;;;;;;;;;;;19.40;99.90;;;;;;5093373;28;19927;-41
2023/06/05 09:12:19;;;;;;;;;;;19.40;99.90;;;;;;5093258;28;19916;-40
2023/06/05 09:14:45;;;;;;;;;;;19.40;99.90;;;;;;5093170;28;19930;-41
2023/06/05 09:17:14;;;;;;;;;;;19.50;99.90;;;;;;5092698;28;19912;-41
2023/06/05 09:19:40;;;;;;;;;;;19.50;99.80;;;;;;5093434;28;19919;-42
2023/06/05 09:22:07;;;;;;;;;;;19.60;99.70;;;;;;5093118;28;20262;-41
2023/06/05 09:24:32;;;;;;;;;;;19.70;99.60;;;;;;5093032;28;19908;-40
2023/06/05 09:26:59;;;;;;;;;;;19.70;99.60;;;;;;5092483;28;19915;-42
2023/06/05 09:29:26;;;;;;;;;;;19.70;99.50;;;;;;5092831;28;20354;-41
2023/06/05 09:31:53;;;;;;;;;;;19.70;99.60;;;;;;5092853;28;20296;-41
2023/06/05 09:34:25;;;;;;;;;;;19.70;99.70;;;;;;5093085;28;19977;-41
2023/06/05 09:36:51;;;;;;;;;;;19.60;99.70;;;;;;5092233;28;20377;-41
2023/06/05 09:39:19;;;;;;;;;;;19.60;99.80;;;;;;5092847;28;19915;-41
2023/06/05 09:41:45;;;;;;;;;;;19.60;99.90;;;;;;5092677;28;19908;-41
2023/06/05 09:44:11;;;;;;;;;;;19.60;99.80;;;;;;5092748;28;19911;-41
2023/06/05 09:47:09;;;;;;;;;;;19.60;99.80;;;;;;5092264;28;20255;-42
2023/06/05 09:49:41;;;;;;;;;;;19.70;99.70;;;;;;5058398;28;19961;-41
2023/06/05 09:52:10;;;;;;;;;;;19.70;99.80;;;;;;5092066;28;19967;-41
2023/06/05 09:54:37;;;;;;;;;;;19.70;99.80;;;;;;5092623;28;20374;-41
2023/06/05 09:57:04;;;;;;;;;;;19.70;99.70;;;;;;5091953;28;19908;-41
2023/06/05 09:59:31;;;;;;;;;;;19.80;99.70;;;;;;5092465;28;19931;-41
2023/06/05 10:01:59;;;;;;;;;;;19.80;99.80;;;;;;5092478;28;19912;-41
2023/06/05 10:04:26;;;;;;;;;;;19.80;99.80;;;;;;5092357;28;20366;-41
2023/06/05 10:06:53;;;;;;;;;;;19.80;99.70;;;;;;5091851;28;19915;-41
2023/06/05 10:09:19;;;;;;;;;;;19.80;99.70;;;;;;5092187;28;19920;-40
2023/06/05 10:11:47;;;;;;;;;;;19.90;99.70;;;;;;5092568;28;19912;-41
2023/06/05 10:14:13;;;;;;;;;;;19.80;99.70;;;;;;5092030;28;20369;-43
2023/06/05 10:16:39;;;;;;;;;;;19.90;99.80;;;;;;5091829;28;19908;-41
2023/06/05 10:19:06;;;;;;;;;;;19.80;99.80;;;;;;5092313;28;19908;-42
2023/06/05 10:21:32;;;;;;;;;;;19.90;99.80;;;;;;5092420;28;20266;-41
2023/06/05 10:23:57;;;;;;;;;;;19.90;99.70;;;;;;5092007;28;19909;-41
2023/06/05 10:26:36;;;;;;;;;;;19.90;99.80;;;;;;5091480;28;19920;-41
2023/06/05 10:29:08;;;;;;;;;;;19.90;99.80;;;;;;5092446;28;19918;-40
2023/06/05 10:31:48;;;;;;;;;;;20.00;99.90;;;;;;5092122;28;19912;-42
2023/06/05 10:34:32;;;;;;;;;;;20.00;99.90;;;;;;5092144;28;19915;-41
2023/06/05 10:37:14;;;;;;;;;;;20.00;99.90;;;;;;5091267;28;19908;-41
2023/06/05 10:39:40;;;;;;;;;;;20.00;99.90;;;;;;5091790;28;19912;-41
2023/06/05 10:42:05;;;;;;;;;;;20.00;99.90;;;;;;5091862;28;19909;-41
2023/06/05 10:44:41;;;;;;;;;;;20.00;99.90;;;;;;5091642;28;20250;-41
2023/06/05 10:47:25;;;;;;;;;;;20.00;99.90;;;;;;5091187;28;19912;-43
2023/06/05 10:50:09;;;;;;;;;;;19.90;99.90;;;;;;5091649;28;19915;-40
2023/06/05 10:52:35;;;;;;;;;;;19.90;99.90;;;;;;5091748;28;19922;-41
2023/06/05 10:55:01;;;;;;;;;;;19.90;99.90;;;;;;5091544;28;20281;-41
2023/06/05 10:57:47;;;;;;;;;;;19.90;99.90;;;;;;5091102;28;20003;-41
2023/06/05 11:00:13;;;;;;;;;;;19.90;99.90;;;;;;5091356;28;19908;-42
2023/06/05 11:02:46;;;;;;;;;;;19.80;99.90;;;;;;5091703;28;19908;-41
2023/06/05 11:05:11;;;;;;;;;;;19.80;99.90;;;;;;5095167;28;19912;-41
2023/06/05 11:07:37;;;;;;;;;;;19.90;99.90;;;;;;5095100;28;19915;-42
2023/06/05 11:10:04;;;;;;;;;;;19.90;99.90;;;;;;5095762;28;20392;-41
2023/06/05 11:12:42;;;;;;;;;;;19.90;99.90;;;;;;5095585;28;20441;-40
2023/06/05 11:15:08;;;;;;;;;;;20.00;99.90;;;;;;5095568;28;20366;-41
2023/06/05 11:17:35;;;;;;;;;;;20.00;99.90;;;;;;5095291;28;19916;-42
2023/06/05 11:20:05;;;;;;;;;;;20.00;99.90;;;;;;5095524;28;19908;-40
2023/06/05 11:22:31;;;;;;;;;;;20.00;99.90;;;;;;5096260;28;20284;-42
2023/06/05 11:25:19;;;;;;;;;;;20.00;99.90;;;;;;5095222;28;20389;-41
2023/06/05 11:27:49;;;;;;;;;;;20.00;99.90;;;;;;5094914;28;19912;-42
2023/06/05 11:30:15;;;;;;;;;;;20.00;99.90;;;;;;5095718;28;19964;-41
2023/06/05 11:32:41;;;;;;;;;;;20.00;99.90;;;;;;5095243;28;19912;-41
2023/06/05 11:35:08;;;;;;;;;;;20.10;99.90;;;;;;5095792;28;20375;-42
2023/06/05 11:37:34;;;;;;;;;;;20.00;99.90;;;;;;5094556;28;19912;-41
2023/06/05 11:40:04;;;;;;;;;;;20.00;99.90;;;;;;5095136;28;19926;-41
2023/06/05 11:42:30;;;;;;;;;;;20.10;99.90;;;;;;5095121;28;19939;-42
2023/06/05 11:44:55;;;;;;;;;;;20.10;99.90;;;;;;5094990;28;20438;-41
2023/06/05 11:47:30;;;;;;;;;;;20.10;99.90;;;;;;5094728;28;20007;-42
2023/06/05 11:50:08;;;;;;;;;;;20.10;99.90;;;;;;5094938;28;20036;-42
2023/06/05 11:52:34;;;;;;;;;;;20.10;99.90;;;;;;5094987;28;19923;-42
2023/06/05 11:55:14;;;;;;;;;;;20.10;99.90;;;;;;5094730;28;19908;-42
2023/06/05 11:57:44;;;;;;;;;;;20.10;99.90;;;;;;5094326;28;19974;-42
2023/06/05 12:00:11;;;;;;;;;;;20.10;99.90;;;;;;5094863;28;20373;-41
2023/06/05 12:02:41;;;;;;;;;;;20.10;99.90;;;;;;5094672;28;20012;-41
2023/06/05 12:05:10;;;;;;;;;;;20.10;99.90;;;;;;5094681;28;19923;-42
2023/06/05 12:07:39;;;;;;;;;;;20.10;99.90;;;;;;5094000;28;20006;-41
2023/06/05 12:10:06;;;;;;;;;;;20.10;99.90;;;;;;5095168;28;19923;-41
2023/06/05 12:12:33;;;;;;;;;;;20.10;99.90;;;;;;5094513;28;20003;-41
2023/06/05 12:15:15;;;;;;;;;;;20.00;99.90;;;;;;5093870;28;19908;-44
2023/06/05 12:17:40;;;;;;;;;;;20.10;99.90;;;;;;5093964;28;19919;-41
2023/06/05 12:20:06;;;;;;;;;;;20.10;99.90;;;;;;5094451;28;19916;-41
2023/06/05 12:22:35;;;;;;;;;;;20.10;99.90;;;;;;5094519;28;19934;-42
2023/06/05 12:25:16;;;;;;;;;;;20.10;99.90;;;;;;5094233;28;19955;-41
2023/06/05 12:27:42;;;;;;;;;;;20.10;99.90;;;;;;5093604;28;19908;-41
2023/06/05 12:30:09;;;;;;;;;;;20.10;99.90;;;;;;5094415;28;19916;-44
2023/06/05 12:32:34;;;;;;;;;;;20.10;99.90;;;;;;5094071;28;19969;-42
2023/06/05 12:35:00;;;;;;;;;;;20.10;99.80;;;;;;5094021;28;19944;-41
2023/06/05 12:37:29;;;;;;;;;;;20.10;99.80;;;;;;5093539;28;20328;-42
2023/06/05 12:39:55;;;;;;;;;;;20.10;99.80;;;;;;5093912;28;19915;-41
2023/06/05 12:42:21;;;;;;;;;;;20.10;99.80;;;;;;5093877;28;19912;-40
2023/06/05 12:44:46;;;;;;;;;;;20.10;99.70;;;;;;5093892;28;19916;-42
2023/06/05 12:47:12;;;;;;;;;;;20.10;99.70;;;;;;5093335;28;19916;-40
2023/06/05 12:49:37;;;;;;;;;;;20.10;99.60;;;;;;5094631;28;19915;-42
2023/06/05 12:52:05;;;;;;;;;;;20.10;99.60;;;;;;5093685;28;19908;-41
2023/06/05 12:54:30;;;;;;;;;;;20.10;99.60;;;;;;5093705;28;19985;-41
2023/06/05 12:56:57;;;;;;;;;;;20.10;99.60;;;;;;5093803;28;19919;-40
2023/06/05 12:59:22;;;;;;;;;;;20.10;98.40;;;;;;5093878;28;20007;-40
2023/06/05 13:01:47;;;;;;;;;;;20.30;97.40;;;;;;5093588;28;20022;-41
2023/06/05 13:04:13;;;;;;;;;;;20.40;97.70;;;;;;5093560;28;19962;-41
2023/06/05 13:06:40;;;;;;;;;;;20.40;97.70;;;;;;5093663;28;19908;-40
2023/06/05 13:09:05;;;;;;;;;;;20.40;97.70;;;;;;5093536;28;19967;-41
2023/06/05 13:11:31;;;;;;;;;;;20.40;97.80;;;;;;5092015;28;19947;-40
2023/06/05 13:13:56;;;;;;;;;;;20.40;97.70;;;;;;5093219;28;20290;-40
2023/06/05 13:16:22;;;;;;;;;;;20.30;97.80;;;;;;5092986;28;19908;-41
2023/06/05 13:18:47;;;;;;;;;;;20.30;97.90;;;;;;5093289;28;20405;-40
2023/06/05 13:21:13;;;;;;;;;;;20.30;98.00;;;;;;5093152;28;20377;-40
2023/06/05 13:23:38;;;;;;;;;;;20.30;98.00;;;;;;5093069;28;19934;-40
2023/06/05 13:26:04;;;;;;;;;;;20.30;98.00;;;;;;5092269;28;19917;-41
2023/06/05 13:28:30;;;;;;;;;;;20.30;98.10;;;;;;5092962;28;20117;-40
2023/06/05 13:30:56;;;;;;;;;;;20.30;98.10;;;;;;5093561;28;19986;-41
2023/06/05 13:33:22;;;;;;;;;;;20.30;98.10;;;;;;5093057;28;19912;-40
2023/06/05 13:35:48;;;;;;;;;;;20.30;98.10;;;;;;5092544;28;19908;-41
2023/06/05 13:38:13;;;;;;;;;;;20.20;98.10;;;;;;5092717;28;19908;-40
2023/06/05 13:40:39;;;;;;;;;;;20.20;98.20;;;;;;5091441;28;20277;-40
2023/06/05 13:43:04;;;;;;;;;;;20.20;98.20;;;;;;5092791;28;19912;-39
2023/06/05 13:45:30;;;;;;;;;;;20.30;97.10;;;;;;5093189;28;19908;-40
2023/06/05 13:47:55;;;;;;;;;;;20.50;96.00;;;;;;5092243;28;20029;-40
2023/06/05 13:50:21;;;;;;;;;;;20.70;95.10;;;;;;5092657;28;19908;-41
2023/06/05 13:52:46;;;;;;;;;;;21.00;95.30;;;;;;5092581;28;19966;-40
2023/06/05 13:55:12;;;;;;;;;;;21.10;95.40;;;;;;5092732;28;19915;-40
2023/06/05 13:57:38;;;;;;;;;;;21.20;95.40;;;;;;5092395;28;19909;-40
2023/06/05 14:00:05;;;;;;;;;;;21.30;95.20;;;;;;5092638;28;20325;-40
2023/06/05 14:02:31;;;;;;;;;;;21.30;95.30;;;;;;5092546;28;19943;-40
2023/06/05 14:04:56;;;;;;;;;;;21.30;95.70;;;;;;5092315;28;19919;-39
2023/06/05 14:07:22;;;;;;;;;;;21.20;95.70;;;;;;5092821;28;20370;-42
2023/06/05 14:09:48;;;;;;;;;;;21.20;95.90;;;;;;5093121;28;19980;-39
2023/06/05 14:12:13;;;;;;;;;;;21.20;96.10;;;;;;5092227;28;19923;-40
2023/06/05 14:14:41;;;;;;;;;;;21.20;96.10;;;;;;5091437;28;21278;-40